Aviation Digital Data Service (ADDS)

Output produced by METARs form (1330 UTC 15 August 2018)
found at http://www.aviationweather.gov/adds/metars/
 
METAR text: LFLU 151300Z AUTO 36014KT 340V040 CAVOK 28/14 Q1018
Conditions at: LFLU (VALENCE-CHABEUIL, FR) observed 1300 UTC 15 August 2018
Temperature: 28.0°C (82°F)
Dewpoint: 14.0°C (57°F) [RH = 42%]
Pressure (altimeter): 30.06 inches Hg (1018.0 mb)
Winds: from the N (360 degrees) at 16 MPH (14 knots; 7.3 m/s)
Visibility: 6 or more miles (10+ km)
Ceiling: ceiling and visibility are OK
Clouds: unknown
Weather: no significant weather observed at this time